sensor_id;sensor_type;location;lat;lon;timestamp;pressure;altitude;pressure_sealevel;temperature;humidity
25130;BME280;13308;50.860;13.664;2024-03-02T06:28:34;95851.69;;;7.81;100.00
25130;BME280;13308;50.860;13.664;2024-03-02T06:31:00;95849.50;;;7.92;100.00
25130;BME280;13308;50.860;13.664;2024-03-02T06:33:26;95842.47;;;7.91;100.00
25130;BME280;13308;50.860;13.664;2024-03-02T06:35:51;95856.34;;;7.84;100.00
25130;BME280;13308;50.860;13.664;2024-03-02T06:38:16;95863.31;;;7.89;100.00
25130;BME280;13308;50.860;13.664;2024-03-02T06:40:42;95857.47;;;7.87;100.00
25130;BME280;13308;50.860;13.664;2024-03-02T06:43:07;95854.44;;;7.81;100.00
25130;BME280;13308;50.860;13.664;2024-03-02T06:45:32;95873.09;;;7.90;100.00
25130;BME280;13308;50.860;13.664;2024-03-02T06:47:59;95869.94;;;7.91;100.00
25130;BME280;13308;50.860;13.664;2024-03-02T06:50:25;95875.66;;;7.81;100.00
25130;BME280;13308;50.860;13.664;2024-03-02T06:52:50;95880.97;;;7.88;100.00
25130;BME280;13308;50.860;13.664;2024-03-02T06:55:15;95882.53;;;7.89;100.00
25130;BME280;13308;50.860;13.664;2024-03-02T06:57:40;95883.31;;;7.89;100.00
25130;BME280;13308;50.860;13.664;2024-03-02T07:00:06;95886.47;;;7.88;100.00
25130;BME280;13308;50.860;13.664;2024-03-02T07:02:34;95878.03;;;7.79;100.00
25130;BME280;13308;50.860;13.664;2024-03-02T07:04:59;95880.69;;;7.82;100.00
25130;BME280;13308;50.860;13.664;2024-03-02T07:07:25;95886.47;;;7.88;100.00
25130;BME280;13308;50.860;13.664;2024-03-02T07:09:50;95884.38;;;7.95;100.00
25130;BME280;13308;50.860;13.664;2024-03-02T07:12:15;95887.13;;;7.95;100.00
25130;BME280;13308;50.860;13.664;2024-03-02T07:14:41;95878.44;;;7.97;100.00
25130;BME280;13308;50.860;13.664;2024-03-02T07:17:24;95875.69;;;7.97;100.00
25130;BME280;13308;50.860;13.664;2024-03-02T07:19:51;95885.91;;;7.96;100.00
25130;BME280;13308;50.860;13.664;2024-03-02T07:22:16;95874.63;;;7.91;100.00
25130;BME280;13308;50.860;13.664;2024-03-02T07:24:42;95890.75;;;7.89;100.00
25130;BME280;13308;50.860;13.664;2024-03-02T07:27:11;95882.19;;;7.87;100.00
25130;BME280;13308;50.860;13.664;2024-03-02T07:29:37;95890.41;;;7.87;100.00
25130;BME280;13308;50.860;13.664;2024-03-02T07:32:03;95883.81;;;7.84;100.00
25130;BME280;13308;50.860;13.664;2024-03-02T07:34:29;95885.19;;;7.92;100.00
25130;BME280;13308;50.860;13.664;2024-03-02T07:36:55;95901.41;;;7.87;100.00
25130;BME280;13308;50.860;13.664;2024-03-02T07:39:20;95899.16;;;7.82;100.00
25130;BME280;13308;50.860;13.664;2024-03-02T07:41:46;95894.72;;;7.88;100.00
25130;BME280;13308;50.860;13.664;2024-03-02T07:44:11;95911.81;;;7.95;100.00
25130;BME280;13308;50.860;13.664;2024-03-02T07:46:43;95909.34;;;8.01;100.00
25130;BME280;13308;50.860;13.664;2024-03-02T07:49:09;95906.59;;;8.01;100.00
25130;BME280;13308;50.860;13.664;2024-03-02T07:51:35;95916.38;;;8.02;100.00
25130;BME280;13308;50.860;13.664;2024-03-02T07:54:01;95921.88;;;8.02;100.00
25130;BME280;13308;50.860;13.664;2024-03-02T07:56:26;95922.56;;;8.06;100.00
25130;BME280;13308;50.860;13.664;2024-03-02T07:58:52;95927.56;;;8.11;100.00
25130;BME280;13308;50.860;13.664;2024-03-02T08:01:17;95922.72;;;7.99;100.00
25130;BME280;13308;50.860;13.664;2024-03-02T08:03:43;95927.00;;;8.00;100.00
25130;BME280;13308;50.860;13.664;2024-03-02T08:06:13;95928.22;;;7.99;100.00
25130;BME280;13308;50.860;13.664;2024-03-02T08:08:40;95933.97;;;8.04;100.00
25130;BME280;13308;50.860;13.664;2024-03-02T08:11:05;95939.47;;;8.04;100.00
25130;BME280;13308;50.860;13.664;2024-03-02T08:13:30;95933.22;;;8.04;100.00
25130;BME280;13308;50.860;13.664;2024-03-02T08:15:56;95936.16;;;8.13;100.00
25130;BME280;13308;50.860;13.664;2024-03-02T08:18:21;95936.66;;;8.07;100.00
25130;BME280;13308;50.860;13.664;2024-03-02T08:20:46;95941.66;;;8.13;100.00
25130;BME280;13308;50.860;13.664;2024-03-02T08:23:12;95941.66;;;8.13;100.00
25130;BME280;13308;50.860;13.664;2024-03-02T08:25:37;95940.31;;;8.21;100.00
25130;BME280;13308;50.860;13.664;2024-03-02T08:28:02;95953.22;;;8.24;100.00
25130;BME280;13308;50.860;13.664;2024-03-02T08:30:28;95938.19;;;8.08;100.00
25130;BME280;13308;50.860;13.664;2024-03-02T08:32:53;95951.16;;;8.08;100.00
25130;BME280;13308;50.860;13.664;2024-03-02T08:35:18;95955.59;;;8.02;100.00
25130;BME280;13308;50.860;13.664;2024-03-02T08:37:44;95954.31;;;8.07;100.00
25130;BME280;13308;50.860;13.664;2024-03-02T08:40:09;95948.84;;;8.07;100.00
25130;BME280;13308;50.860;13.664;2024-03-02T08:42:35;95962.91;;;8.08;100.00
25130;BME280;13308;50.860;13.664;2024-03-02T08:45:01;95952.44;;;8.23;100.00
25130;BME280;13308;50.860;13.664;2024-03-02T08:47:27;95957.16;;;8.23;100.00
25130;BME280;13308;50.860;13.664;2024-03-02T08:49:52;95966.31;;;8.36;100.00
25130;BME280;13308;50.860;13.664;2024-03-02T08:52:18;95958.56;;;8.31;100.00
25130;BME280;13308;50.860;13.664;2024-03-02T08:54:43;95956.16;;;8.32;100.00
25130;BME280;13308;50.860;13.664;2024-03-02T08:57:08;95961.94;;;8.38;100.00
25130;BME280;13308;50.860;13.664;2024-03-02T08:59:34;95940.94;;;8.48;100.00
25130;BME280;13308;50.860;13.664;2024-03-02T09:01:59;95937.75;;;8.49;100.00
25130;BME280;13308;50.860;13.664;2024-03-02T09:04:24;95948.50;;;8.59;100.00
25130;BME280;13308;50.860;13.664;2024-03-02T09:06:50;95946.09;;;8.61;100.00
25130;BME280;13308;50.860;13.664;2024-03-02T09:09:15;95943.91;;;8.88;100.00
25130;BME280;13308;50.860;13.664;2024-03-02T09:11:41;95946.69;;;9.04;100.00
25130;BME280;13308;50.860;13.664;2024-03-02T09:14:06;95947.88;;;8.87;100.00
25130;BME280;13308;50.860;13.664;2024-03-02T09:16:31;95949.00;;;8.90;100.00
25130;BME280;13308;50.860;13.664;2024-03-02T09:18:57;95950.97;;;8.89;100.00
25130;BME280;13308;50.860;13.664;2024-03-02T09:21:22;95947.09;;;8.87;100.00
25130;BME280;13308;50.860;13.664;2024-03-02T09:23:48;95958.00;;;8.90;100.00
25130;BME280;13308;50.860;13.664;2024-03-02T09:26:13;95959.91;;;9.09;100.00
25130;BME280;13308;50.860;13.664;2024-03-02T09:28:43;95957.69;;;9.04;100.00
25130;BME280;13308;50.860;13.664;2024-03-02T09:31:08;95961.03;;;9.12;100.00
25130;BME280;13308;50.860;13.664;2024-03-02T09:33:33;95966.78;;;9.01;100.00
25130;BME280;13308;50.860;13.664;2024-03-02T09:35:59;95962.75;;;9.06;100.00
25130;BME280;13308;50.860;13.664;2024-03-02T09:38:24;95962.66;;;8.93;100.00
25130;BME280;13308;50.860;13.664;2024-03-02T09:40:49;95962.56;;;8.97;100.00
25130;BME280;13308;50.860;13.664;2024-03-02T09:43:15;95965.94;;;9.20;100.00
25130;BME280;13308;50.860;13.664;2024-03-02T09:45:40;95971.50;;;9.17;100.00
25130;BME280;13308;50.860;13.664;2024-03-02T09:48:06;95968.34;;;9.18;100.00
25130;BME280;13308;50.860;13.664;2024-03-02T09:50:32;95973.84;;;9.18;100.00
25130;BME280;13308;50.860;13.664;2024-03-02T09:52:58;95976.94;;;9.04;100.00
25130;BME280;13308;50.860;13.664;2024-03-02T09:55:23;95959.91;;;9.09;100.00
25130;BME280;13308;50.860;13.664;2024-03-02T09:57:50;95968.00;;;9.00;100.00
25130;BME280;13308;50.860;13.664;2024-03-02T10:00:16;95971.16;;;8.99;100.00
25130;BME280;13308;50.860;13.664;2024-03-02T10:02:42;95973.31;;;9.07;100.00
25130;BME280;13308;50.860;13.664;2024-03-02T10:05:10;95962.31;;;9.07;100.00
25130;BME280;13308;50.860;13.664;2024-03-02T10:07:37;95961.63;;;9.03;100.00
25130;BME280;13308;50.860;13.664;2024-03-02T10:10:15;95960.25;;;8.95;100.00
25130;BME280;13308;50.860;13.664;2024-03-02T10:12:41;95955.09;;;9.13;100.00
25130;BME280;13308;50.860;13.664;2024-03-02T10:15:06;95949.78;;;9.06;100.00
25130;BME280;13308;50.860;13.664;2024-03-02T10:17:32;95949.78;;;9.06;100.00
25130;BME280;13308;50.860;13.664;2024-03-02T10:19:58;95957.25;;;9.22;100.00
25130;BME280;13308;50.860;13.664;2024-03-02T10:22:23;95942.22;;;9.10;100.00
25130;BME280;13308;50.860;13.664;2024-03-02T10:24:49;95951.22;;;9.27;100.00
25130;BME280;13308;50.860;13.664;2024-03-02T10:27:26;95948.91;;;9.25;100.00
25130;BME280;13308;50.860;13.664;2024-03-02T10:29:52;95946.00;;;9.16;100.00
25130;BME280;13308;50.860;13.664;2024-03-02T10:32:17;95947.53;;;9.17;100.00
25130;BME280;13308;50.860;13.664;2024-03-02T10:34:45;95946.34;;;9.18;100.00
25130;BME280;13308;50.860;13.664;2024-03-02T10:37:11;95943.59;;;9.18;100.00
25130;BME280;13308;50.860;13.664;2024-03-02T10:39:37;95937.06;;;9.28;100.00
25130;BME280;13308;50.860;13.664;2024-03-02T10:42:05;95929.25;;;9.55;100.00
25130;BME280;13308;50.860;13.664;2024-03-02T10:44:31;95927.53;;;9.61;100.00
25130;BME280;13308;50.860;13.664;2024-03-02T10:47:00;95929.09;;;9.91;100.00
25130;BME280;13308;50.860;13.664;2024-03-02T10:49:26;95937.66;;;10.62;100.00
25130;BME280;13308;50.860;13.664;2024-03-02T10:51:52;95941.97;;;11.13;100.00
25130;BME280;13308;50.860;13.664;2024-03-02T10:54:18;95933.34;;;11.11;100.00
25130;BME280;13308;50.860;13.664;2024-03-02T10:56:44;95939.84;;;11.17;100.00
25130;BME280;13308;50.860;13.664;2024-03-02T10:59:37;95939.41;;;11.06;100.00
25130;BME280;13308;50.860;13.664;2024-03-02T11:02:10;95932.91;;;11.13;100.00
25130;BME280;13308;50.860;13.664;2024-03-02T11:04:38;95943.63;;;10.98;100.00
25130;BME280;13308;50.860;13.664;2024-03-02T11:07:05;95933.91;;;10.81;100.00
25130;BME280;13308;50.860;13.664;2024-03-02T11:09:34;95934.03;;;10.78;100.00
25130;BME280;13308;50.860;13.664;2024-03-02T11:12:03;95938.56;;;10.84;100.00
25130;BME280;13308;50.860;13.664;2024-03-02T11:14:31;95936.09;;;11.11;100.00
25130;BME280;13308;50.860;13.664;2024-03-02T11:17:00;95931.13;;;11.31;100.00
25130;BME280;13308;50.860;13.664;2024-03-02T11:19:27;95929.44;;;11.46;100.00
25130;BME280;13308;50.860;13.664;2024-03-02T11:21:53;95933.66;;;11.26;100.00
25130;BME280;13308;50.860;13.664;2024-03-02T11:26:47;95926.59;;;11.25;100.00
25130;BME280;13308;50.860;13.664;2024-03-02T11:32:05;95932.59;;;10.98;100.00
25130;BME280;13308;50.860;13.664;2024-03-02T11:34:34;95930.59;;;11.24;100.00
25130;BME280;13308;50.860;13.664;2024-03-02T11:37:03;95921.09;;;11.12;100.00
25130;BME280;13308;50.860;13.664;2024-03-02T11:39:29;95932.63;;;11.45;100.00
25130;BME280;13308;50.860;13.664;2024-03-02T11:41:55;95927.84;;;11.70;100.00
25130;BME280;13308;50.860;13.664;2024-03-02T11:44:22;95923.63;;;11.78;100.00
25130;BME280;13308;50.860;13.664;2024-03-02T11:47:06;95911.13;;;12.60;100.00
25130;BME280;13308;50.860;13.664;2024-03-02T11:52:05;95915.38;;;12.82;100.00
25130;BME280;13308;50.860;13.664;2024-03-02T11:54:39;95909.84;;;12.52;100.00
25130;BME280;13308;50.860;13.664;2024-03-02T11:57:08;95910.41;;;12.68;100.00
25130;BME280;13308;50.860;13.664;2024-03-02T11:59:33;95910.66;;;12.61;100.00
25130;BME280;13308;50.860;13.664;2024-03-02T12:01:59;95921.84;;;12.27;100.00
25130;BME280;13308;50.860;13.664;2024-03-02T12:04:25;95917.72;;;12.32;100.00
25130;BME280;13308;50.860;13.664;2024-03-02T12:07:00;95907.81;;;12.22;100.00
25130;BME280;13308;50.860;13.664;2024-03-02T12:09:27;95904.13;;;12.46;100.00
25130;BME280;13308;50.860;13.664;2024-03-02T12:12:06;95906.53;;;12.96;100.00
25130;BME280;13308;50.860;13.664;2024-03-02T12:14:32;95899.59;;;12.92;100.00
25130;BME280;13308;50.860;13.664;2024-03-02T12:16:58;95900.47;;;13.10;100.00
25130;BME280;13308;50.860;13.664;2024-03-02T12:19:25;95906.66;;;12.93;100.00
25130;BME280;13308;50.860;13.664;2024-03-02T12:21:51;95901.41;;;13.25;100.00
25130;BME280;13308;50.860;13.664;2024-03-02T12:24:16;95896.16;;;13.18;100.00
25130;BME280;13308;50.860;13.664;2024-03-02T12:26:42;95897.41;;;13.26;100.00
25130;BME280;13308;50.860;13.664;2024-03-02T12:29:07;95886.19;;;12.81;100.00
25130;BME280;13308;50.860;13.664;2024-03-02T12:31:33;95880.47;;;13.15;100.00
25130;BME280;13308;50.860;13.664;2024-03-02T12:34:02;95887.03;;;13.75;100.00
25130;BME280;13308;50.860;13.664;2024-03-02T12:36:28;95884.09;;;14.15;100.00
25130;BME280;13308;50.860;13.664;2024-03-02T12:38:53;95882.34;;;14.53;100.00
25130;BME280;13308;50.860;13.664;2024-03-02T12:41:20;95882.47;;;14.68;99.34
25130;BME280;13308;50.860;13.664;2024-03-02T12:43:46;95883.34;;;14.23;96.76
25130;BME280;13308;50.860;13.664;2024-03-02T12:46:11;95888.56;;;13.85;97.00
25130;BME280;13308;50.860;13.664;2024-03-02T12:48:37;95886.72;;;13.73;100.00
25130;BME280;13308;50.860;13.664;2024-03-02T12:51:04;95881.75;;;13.41;100.00
25130;BME280;13308;50.860;13.664;2024-03-02T12:53:30;95894.78;;;13.14;100.00
25130;BME280;13308;50.860;13.664;2024-03-02T12:55:56;95885.16;;;12.57;100.00
25130;BME280;13308;50.860;13.664;2024-03-02T12:58:22;95884.41;;;12.35;100.00
25130;BME280;13308;50.860;13.664;2024-03-02T13:00:48;95881.97;;;12.16;100.00
25130;BME280;13308;50.860;13.664;2024-03-02T13:03:13;95888.28;;;11.95;100.00
25130;BME280;13308;50.860;13.664;2024-03-02T13:05:39;95889.38;;;11.76;100.00
25130;BME280;13308;50.860;13.664;2024-03-02T13:08:06;95887.31;;;11.67;100.00
25130;BME280;13308;50.860;13.664;2024-03-02T13:10:32;95888.41;;;12.13;100.00
25130;BME280;13308;50.860;13.664;2024-03-02T13:12:58;95888.09;;;11.89;100.00
25130;BME280;13308;50.860;13.664;2024-03-02T13:15:26;95888.69;;;12.06;100.00
25130;BME280;13308;50.860;13.664;2024-03-02T13:17:51;95881.22;;;11.72;100.00
25130;BME280;13308;50.860;13.664;2024-03-02T13:20:16;95890.72;;;11.71;100.00
25130;BME280;13308;50.860;13.664;2024-03-02T13:22:43;95891.06;;;11.14;100.00
25130;BME280;13308;50.860;13.664;2024-03-02T13:25:08;95882.31;;;11.28;100.00
25130;BME280;13308;50.860;13.664;2024-03-02T13:27:36;95889.53;;;11.01;100.00
25130;BME280;13308;50.860;13.664;2024-03-02T13:30:02;95883.59;;;11.02;100.00
25130;BME280;13308;50.860;13.664;2024-03-02T13:32:28;95887.09;;;11.15;100.00
25130;BME280;13308;50.860;13.664;2024-03-02T13:34:53;95884.63;;;11.30;100.00
25130;BME280;13308;50.860;13.664;2024-03-02T13:37:20;95876.72;;;11.19;100.00
25130;BME280;13308;50.860;13.664;2024-03-02T13:39:45;95876.31;;;11.08;100.00
25130;BME280;13308;50.860;13.664;2024-03-02T13:42:11;95876.69;;;11.32;100.00
25130;BME280;13308;50.860;13.664;2024-03-02T13:44:39;95884.66;;;11.17;100.00
25130;BME280;13308;50.860;13.664;2024-03-02T13:47:04;95874.09;;;11.03;100.00
25130;BME280;13308;50.860;13.664;2024-03-02T13:49:30;95878.34;;;11.29;100.00
25130;BME280;13308;50.860;13.664;2024-03-02T13:52:00;95894.16;;;11.29;100.00
25130;BME280;13308;50.860;13.664;2024-03-02T13:54:28;95890.66;;;11.03;100.00
25130;BME280;13308;50.860;13.664;2024-03-02T13:56:54;95883.06;;;10.70;100.00
25130;BME280;13308;50.860;13.664;2024-03-02T13:59:19;95890.25;;;10.67;100.00
25130;BME280;13308;50.860;13.664;2024-03-02T14:01:45;95888.91;;;10.59;100.00
25130;BME280;13308;50.860;13.664;2024-03-02T14:04:10;95884.16;;;10.60;100.00
25130;BME280;13308;50.860;13.664;2024-03-02T14:06:35;95871.81;;;10.39;100.00
25130;BME280;13308;50.860;13.664;2024-03-02T14:09:01;95877.44;;;10.48;100.00
25130;BME280;13308;50.860;13.664;2024-03-02T14:11:26;95894.09;;;10.57;100.00
25130;BME280;13308;50.860;13.664;2024-03-02T14:13:51;95889.75;;;10.44;100.00
25130;BME280;13308;50.860;13.664;2024-03-02T14:16:19;95885.59;;;10.39;100.00
25130;BME280;13308;50.860;13.664;2024-03-02T14:18:45;95890.69;;;10.53;100.00
25130;BME280;13308;50.860;13.664;2024-03-02T14:21:10;95901.81;;;10.62;100.00
25130;BME280;13308;50.860;13.664;2024-03-02T14:23:35;95887.38;;;10.46;100.00
25130;BME280;13308;50.860;13.664;2024-03-02T14:26:01;95892.38;;;10.22;100.00
25130;BME280;13308;50.860;13.664;2024-03-02T14:28:26;95885.88;;;10.04;100.00
25130;BME280;13308;50.860;13.664;2024-03-02T14:30:52;95880.84;;;9.99;100.00
25130;BME280;13308;50.860;13.664;2024-03-02T14:33:17;95885.94;;;10.00;100.00
25130;BME280;13308;50.860;13.664;2024-03-02T14:35:44;95887.47;;;10.01;100.00
25130;BME280;13308;50.860;13.664;2024-03-02T14:38:10;95885.56;;;9.86;100.00
25130;BME280;13308;50.860;13.664;2024-03-02T14:40:36;95880.81;;;9.86;100.00
25130;BME280;13308;50.860;13.664;2024-03-02T14:43:01;95882.91;;;9.82;100.00
25130;BME280;13308;50.860;13.664;2024-03-02T14:45:26;95878.59;;;9.81;100.00
25130;BME280;13308;50.860;13.664;2024-03-02T14:47:52;95881.16;;;9.88;100.00
25130;BME280;13308;50.860;13.664;2024-03-02T14:50:18;95880.44;;;10.00;100.00
25130;BME280;13308;50.860;13.664;2024-03-02T14:52:46;95867.56;;;9.81;100.00
25130;BME280;13308;50.860;13.664;2024-03-02T14:55:12;95868.13;;;9.76;100.00
25130;BME280;13308;50.860;13.664;2024-03-02T14:57:37;95875.41;;;9.83;100.00
25130;BME280;13308;50.860;13.664;2024-03-02T15:00:03;95865.19;;;9.83;100.00
25130;BME280;13308;50.860;13.664;2024-03-02T15:02:28;95869.47;;;9.84;100.00
25130;BME280;13308;50.860;13.664;2024-03-02T15:04:54;95870.53;;;9.74;100.00
25130;BME280;13308;50.860;13.664;2024-03-02T15:07:20;95861.84;;;9.76;100.00
25130;BME280;13308;50.860;13.664;2024-03-02T15:09:45;95864.69;;;9.72;100.00
25130;BME280;13308;50.860;13.664;2024-03-02T15:12:10;95865.38;;;9.76;100.00
25130;BME280;13308;50.860;13.664;2024-03-02T15:14:38;95859.19;;;9.72;100.00
25130;BME280;13308;50.860;13.664;2024-03-02T15:17:11;95863.06;;;9.75;100.00
25130;BME280;13308;50.860;13.664;2024-03-02T15:19:37;95862.28;;;9.74;100.00
25130;BME280;13308;50.860;13.664;2024-03-02T15:22:02;95856.75;;;9.74;100.00
25130;BME280;13308;50.860;13.664;2024-03-02T15:24:28;95860.41;;;9.71;100.00
25130;BME280;13308;50.860;13.664;2024-03-02T15:26:53;95862.25;;;9.62;100.00
25130;BME280;13308;50.860;13.664;2024-03-02T15:29:18;95855.44;;;9.66;100.00
25130;BME280;13308;50.860;13.664;2024-03-02T15:31:44;95850.59;;;9.70;100.00
25130;BME280;13308;50.860;13.664;2024-03-02T15:34:10;95854.06;;;9.87;100.00
25130;BME280;13308;50.860;13.664;2024-03-02T15:36:35;95851.72;;;9.85;100.00
25130;BME280;13308;50.860;13.664;2024-03-02T15:39:00;95853.47;;;9.79;100.00
25130;BME280;13308;50.860;13.664;2024-03-02T15:41:26;95852.41;;;9.89;100.00
25130;BME280;13308;50.860;13.664;2024-03-02T15:43:52;95850.97;;;9.85;100.00
25130;BME280;13308;50.860;13.664;2024-03-02T15:46:17;95857.03;;;9.92;100.00
25130;BME280;13308;50.860;13.664;2024-03-02T15:48:42;95856.66;;;9.78;100.00
25130;BME280;13308;50.860;13.664;2024-03-02T15:51:08;95855.66;;;9.72;100.00
25130;BME280;13308;50.860;13.664;2024-03-02T15:53:35;95847.00;;;9.86;100.00
25130;BME280;13308;50.860;13.664;2024-03-02T15:56:00;95860.94;;;9.66;100.00
25130;BME280;13308;50.860;13.664;2024-03-02T15:58:26;95852.38;;;9.48;100.00
25130;BME280;13308;50.860;13.664;2024-03-02T16:00:51;95848.28;;;9.40;100.00
25130;BME280;13308;50.860;13.664;2024-03-02T16:03:16;95851.47;;;9.39;100.00
25130;BME280;13308;50.860;13.664;2024-03-02T16:05:42;95840.69;;;9.44;100.00
25130;BME280;13308;50.860;13.664;2024-03-02T16:08:07;95837.19;;;9.44;100.00
25130;BME280;13308;50.860;13.664;2024-03-02T16:10:32;95838.84;;;9.41;100.00
25130;BME280;13308;50.860;13.664;2024-03-02T16:12:58;95829.47;;;9.39;100.00
25130;BME280;13308;50.860;13.664;2024-03-02T16:15:28;95827.47;;;9.39;100.00
25130;BME280;13308;50.860;13.664;2024-03-02T16:17:53;95825.06;;;9.41;100.00
25130;BME280;13308;50.860;13.664;2024-03-02T16:20:19;95826.94;;;9.44;100.00
25130;BME280;13308;50.860;13.664;2024-03-02T16:22:44;95832.53;;;9.41;100.00
25130;BME280;13308;50.860;13.664;2024-03-02T16:25:10;95833.13;;;9.48;100.00
25130;BME280;13308;50.860;13.664;2024-03-02T16:27:35;95825.72;;;9.45;100.00
25130;BME280;13308;50.860;13.664;2024-03-02T16:30:00;95826.94;;;9.44;100.00
25130;BME280;13308;50.860;13.664;2024-03-02T16:32:25;95833.22;;;9.45;100.00
25130;BME280;13308;50.860;13.664;2024-03-02T16:34:51;95833.97;;;9.45;100.00
25130;BME280;13308;50.860;13.664;2024-03-02T16:37:16;95829.25;;;9.46;100.00
25130;BME280;13308;50.860;13.664;2024-03-02T16:39:43;95827.81;;;9.41;100.00
25130;BME280;13308;50.860;13.664;2024-03-02T16:42:08;95826.28;;;9.40;100.00
25130;BME280;13308;50.860;13.664;2024-03-02T16:44:33;95832.97;;;9.39;100.00
25130;BME280;13308;50.860;13.664;2024-03-02T16:46:59;95833.41;;;9.38;100.00
25130;BME280;13308;50.860;13.664;2024-03-02T16:49:24;95829.56;;;9.35;100.00
25130;BME280;13308;50.860;13.664;2024-03-02T16:51:49;95830.41;;;9.32;100.00
25130;BME280;13308;50.860;13.664;2024-03-02T16:54:15;95840.22;;;9.33;100.00
25130;BME280;13308;50.860;13.664;2024-03-02T16:56:42;95839.88;;;9.31;100.00
25130;BME280;13308;50.860;13.664;2024-03-02T16:59:07;95836.78;;;9.29;100.00
25130;BME280;13308;50.860;13.664;2024-03-02T17:01:32;95847.03;;;9.29;100.00
25130;BME280;13308;50.860;13.664;2024-03-02T17:03:58;95837.31;;;9.24;100.00
25130;BME280;13308;50.860;13.664;2024-03-02T17:06:23;95841.06;;;9.46;100.00
25130;BME280;13308;50.860;13.664;2024-03-02T17:08:48;95843.66;;;9.37;100.00
25130;BME280;13308;50.860;13.664;2024-03-02T17:11:14;95840.75;;;9.28;100.00
25130;BME280;13308;50.860;13.664;2024-03-02T17:13:39;95845.19;;;9.38;100.00
25130;BME280;13308;50.860;13.664;2024-03-02T17:16:04;95851.56;;;9.35;100.00
25130;BME280;13308;50.860;13.664;2024-03-02T17:18:30;95851.72;;;9.44;100.00
25130;BME280;13308;50.860;13.664;2024-03-02T17:20:55;95852.44;;;9.32;100.00
25130;BME280;13308;50.860;13.664;2024-03-02T17:23:20;95848.13;;;9.31;100.00
25130;BME280;13308;50.860;13.664;2024-03-02T17:25:46;95846.91;;;9.32;100.00
25130;BME280;13308;50.860;13.664;2024-03-02T17:28:18;95842.72;;;9.28;100.00
25130;BME280;13308;50.860;13.664;2024-03-02T17:30:44;95838.72;;;9.16;100.00
25130;BME280;13308;50.860;13.664;2024-03-02T17:33:09;95848.44;;;9.05;100.00
25130;BME280;13308;50.860;13.664;2024-03-02T17:35:34;95855.56;;;9.02;100.00
25130;BME280;13308;50.860;13.664;2024-03-02T17:38:00;95841.91;;;8.83;100.00
25130;BME280;13308;50.860;13.664;2024-03-02T17:40:25;95847.19;;;8.77;100.00
25130;BME280;13308;50.860;13.664;2024-03-02T17:42:50;95838.06;;;8.64;100.00
25130;BME280;13308;50.860;13.664;2024-03-02T17:45:16;95838.91;;;8.61;100.00
25130;BME280;13308;50.860;13.664;2024-03-02T17:47:41;95836.75;;;8.53;100.00
25130;BME280;13308;50.860;13.664;2024-03-02T17:50:07;95838.75;;;8.52;100.00
25130;BME280;13308;50.860;13.664;2024-03-02T17:52:32;95838.59;;;8.59;100.00
25130;BME280;13308;50.860;13.664;2024-03-02T17:54:57;95835.06;;;8.75;100.00
25130;BME280;13308;50.860;13.664;2024-03-02T17:57:23;95832.22;;;8.62;100.00
25130;BME280;13308;50.860;13.664;2024-03-02T17:59:48;95830.34;;;8.59;100.00
25130;BME280;13308;50.860;13.664;2024-03-02T18:02:13;95832.06;;;8.69;100.00
25130;BME280;13308;50.860;13.664;2024-03-02T18:04:39;95826.66;;;8.66;100.00
25130;BME280;13308;50.860;13.664;2024-03-02T18:07:06;95819.34;;;8.43;100.00
25130;BME280;13308;50.860;13.664;2024-03-02T18:09:31;95815.56;;;8.38;100.00
25130;BME280;13308;50.860;13.664;2024-03-02T18:11:57;95824.31;;;8.32;100.00
25130;BME280;13308;50.860;13.664;2024-03-02T18:14:22;95820.22;;;8.41;100.00
25130;BME280;13308;50.860;13.664;2024-03-02T18:16:47;95815.47;;;8.41;100.00
25130;BME280;13308;50.860;13.664;2024-03-02T18:19:13;95816.06;;;8.32;100.00
25130;BME280;13308;50.860;13.664;2024-03-02T18:21:38;95806.38;;;8.60;100.00
25130;BME280;13308;50.860;13.664;2024-03-02T18:24:04;95808.50;;;8.68;100.00
25130;BME280;13308;50.860;13.664;2024-03-02T18:26:30;95809.44;;;8.94;100.00
25130;BME280;13308;50.860;13.664;2024-03-02T18:28:58;95813.28;;;9.12;100.00
25130;BME280;13308;50.860;13.664;2024-03-02T18:31:23;95815.75;;;9.23;100.00
25130;BME280;13308;50.860;13.664;2024-03-02T18:33:48;95810.34;;;9.19;100.00
25130;BME280;13308;50.860;13.664;2024-03-02T18:36:14;95816.75;;;9.29;100.00
25130;BME280;13308;50.860;13.664;2024-03-02T18:38:39;95819.69;;;9.22;100.00
25130;BME280;13308;50.860;13.664;2024-03-02T18:41:05;95815.25;;;9.12;100.00
25130;BME280;13308;50.860;13.664;2024-03-02T18:43:30;95814.00;;;9.00;100.00
25130;BME280;13308;50.860;13.664;2024-03-02T18:45:56;95821.50;;;8.84;100.00
25130;BME280;13308;50.860;13.664;2024-03-02T18:48:21;95813.34;;;8.64;100.00
25130;BME280;13308;50.860;13.664;2024-03-02T18:50:46;95813.00;;;8.47;100.00
25130;BME280;13308;50.860;13.664;2024-03-02T18:53:12;95814.19;;;8.30;100.00
25130;BME280;13308;50.860;13.664;2024-03-02T18:55:37;95823.56;;;8.13;100.00
25130;BME280;13308;50.860;13.664;2024-03-02T18:58:03;95813.66;;;7.99;100.00
25130;BME280;13308;50.860;13.664;2024-03-02T19:00:32;95811.94;;;7.89;100.00
25130;BME280;13308;50.860;13.664;2024-03-02T19:02:57;95810.59;;;7.78;100.00
25130;BME280;13308;50.860;13.664;2024-03-02T19:05:22;95811.25;;;7.66;100.00
25130;BME280;13308;50.860;13.664;2024-03-02T19:07:48;95814.22;;;7.55;100.00
25130;BME280;13308;50.860;13.664;2024-03-02T19:10:13;95803.19;;;7.39;100.00
25130;BME280;13308;50.860;13.664;2024-03-02T19:12:38;95808.09;;;7.28;100.00
25130;BME280;13308;50.860;13.664;2024-03-02T19:15:04;95802.81;;;7.18;100.00
25130;BME280;13308;50.860;13.664;2024-03-02T19:17:30;95806.44;;;7.15;100.00